sensor_id;sensor_type;location;lat;lon;timestamp;temperature;humidity
12568;DHT22;6349;50.904;6.136;2023-04-01T00:00:36;9.60;99.90
12568;DHT22;6349;50.904;6.136;2023-04-01T00:02:38;9.60;99.90
12568;DHT22;6349;50.904;6.136;2023-04-01T00:04:40;9.60;99.90
12568;DHT22;6349;50.904;6.136;2023-04-01T00:06:40;9.60;99.90
12568;DHT22;6349;50.904;6.136;2023-04-01T00:08:41;9.60;99.90
12568;DHT22;6349;50.904;6.136;2023-04-01T00:10:43;9.60;99.90
12568;DHT22;6349;50.904;6.136;2023-04-01T00:12:46;9.60;99.90
12568;DHT22;6349;50.904;6.136;2023-04-01T00:14:48;9.60;99.90
12568;DHT22;6349;50.904;6.136;2023-04-01T00:16:49;9.60;99.90
12568;DHT22;6349;50.904;6.136;2023-04-01T00:18:53;9.60;99.90
12568;DHT22;6349;50.904;6.136;2023-04-01T00:20:56;9.60;99.90
12568;DHT22;6349;50.904;6.136;2023-04-01T00:22:56;9.60;99.90
12568;DHT22;6349;50.904;6.136;2023-04-01T00:24:58;9.60;99.90
12568;DHT22;6349;50.904;6.136;2023-04-01T00:26:59;9.60;99.90
12568;DHT22;6349;50.904;6.136;2023-04-01T00:29:00;9.60;99.90
12568;DHT22;6349;50.904;6.136;2023-04-01T00:31:07;9.60;99.90
12568;DHT22;6349;50.904;6.136;2023-04-01T00:33:10;9.60;99.90
12568;DHT22;6349;50.904;6.136;2023-04-01T00:35:12;9.60;99.90
12568;DHT22;6349;50.904;6.136;2023-04-01T00:37:14;9.60;99.90
12568;DHT22;6349;50.904;6.136;2023-04-01T00:39:16;9.60;99.90
12568;DHT22;6349;50.904;6.136;2023-04-01T00:41:19;9.60;99.90
12568;DHT22;6349;50.904;6.136;2023-04-01T00:43:20;9.60;99.90
12568;DHT22;6349;50.904;6.136;2023-04-01T00:45:36;9.60;99.90
12568;DHT22;6349;50.904;6.136;2023-04-01T00:47:39;9.60;99.90
12568;DHT22;6349;50.904;6.136;2023-04-01T00:49:45;9.60;99.90
12568;DHT22;6349;50.904;6.136;2023-04-01T00:51:50;9.60;99.90
12568;DHT22;6349;50.904;6.136;2023-04-01T00:53:56;9.60;99.90
12568;DHT22;6349;50.904;6.136;2023-04-01T00:56:10;9.60;99.90
12568;DHT22;6349;50.904;6.136;2023-04-01T00:58:16;9.60;99.90
12568;DHT22;6349;50.904;6.136;2023-04-01T01:00:18;9.60;99.90
12568;DHT22;6349;50.904;6.136;2023-04-01T01:02:21;9.60;99.90
12568;DHT22;6349;50.904;6.136;2023-04-01T01:04:27;9.60;99.90
12568;DHT22;6349;50.904;6.136;2023-04-01T01:06:46;9.60;99.90
12568;DHT22;6349;50.904;6.136;2023-04-01T01:11:55;9.60;99.90
12568;DHT22;6349;50.904;6.136;2023-04-01T01:14:10;9.60;99.90
12568;DHT22;6349;50.904;6.136;2023-04-01T01:16:24;9.60;99.90
12568;DHT22;6349;50.904;6.136;2023-04-01T01:18:55;9.60;99.90
12568;DHT22;6349;50.904;6.136;2023-04-01T01:29:05;9.60;99.90
12568;DHT22;6349;50.904;6.136;2023-04-01T01:33:34;9.60;99.90
12568;DHT22;6349;50.904;6.136;2023-04-01T01:35:53;9.60;99.90
12568;DHT22;6349;50.904;6.136;2023-04-01T01:38:05;9.50;99.90
12568;DHT22;6349;50.904;6.136;2023-04-01T01:40:09;9.50;99.90
12568;DHT22;6349;50.904;6.136;2023-04-01T01:42:15;9.50;99.90
12568;DHT22;6349;50.904;6.136;2023-04-01T01:44:19;9.50;99.90
12568;DHT22;6349;50.904;6.136;2023-04-01T01:46:24;9.50;99.90
12568;DHT22;6349;50.904;6.136;2023-04-01T01:48:27;9.50;99.90
12568;DHT22;6349;50.904;6.136;2023-04-01T01:50:30;9.50;99.90
12568;DHT22;6349;50.904;6.136;2023-04-01T01:52:33;9.50;99.90
12568;DHT22;6349;50.904;6.136;2023-04-01T01:54:35;9.50;99.90
12568;DHT22;6349;50.904;6.136;2023-04-01T01:56:36;9.50;99.90
12568;DHT22;6349;50.904;6.136;2023-04-01T01:58:44;9.50;99.90
12568;DHT22;6349;50.904;6.136;2023-04-01T02:00:50;9.50;99.90
12568;DHT22;6349;50.904;6.136;2023-04-01T02:02:53;9.50;99.90
12568;DHT22;6349;50.904;6.136;2023-04-01T02:04:55;9.50;99.90
12568;DHT22;6349;50.904;6.136;2023-04-01T02:07:06;9.50;99.90
12568;DHT22;6349;50.904;6.136;2023-04-01T02:09:10;9.50;99.90
12568;DHT22;6349;50.904;6.136;2023-04-01T02:11:17;9.50;99.90
12568;DHT22;6349;50.904;6.136;2023-04-01T02:13:33;9.50;99.90
12568;DHT22;6349;50.904;6.136;2023-04-01T02:15:41;9.50;99.90
12568;DHT22;6349;50.904;6.136;2023-04-01T02:17:46;9.50;99.90
12568;DHT22;6349;50.904;6.136;2023-04-01T02:21:55;9.40;99.90
12568;DHT22;6349;50.904;6.136;2023-04-01T02:24:00;9.40;99.90
12568;DHT22;6349;50.904;6.136;2023-04-01T02:26:06;9.40;99.90
12568;DHT22;6349;50.904;6.136;2023-04-01T02:28:08;9.50;99.90
12568;DHT22;6349;50.904;6.136;2023-04-01T02:30:11;9.40;99.90
12568;DHT22;6349;50.904;6.136;2023-04-01T02:32:14;9.40;99.90
12568;DHT22;6349;50.904;6.136;2023-04-01T02:34:21;9.40;99.90
12568;DHT22;6349;50.904;6.136;2023-04-01T02:36:22;9.40;99.90
12568;DHT22;6349;50.904;6.136;2023-04-01T02:38:24;9.40;99.90
12568;DHT22;6349;50.904;6.136;2023-04-01T02:40:25;9.40;99.90
12568;DHT22;6349;50.904;6.136;2023-04-01T02:42:26;9.40;99.90
12568;DHT22;6349;50.904;6.136;2023-04-01T02:44:27;9.40;99.90
12568;DHT22;6349;50.904;6.136;2023-04-01T02:46:29;9.40;99.90
12568;DHT22;6349;50.904;6.136;2023-04-01T02:48:31;9.40;99.90
12568;DHT22;6349;50.904;6.136;2023-04-01T02:50:33;9.50;99.90
12568;DHT22;6349;50.904;6.136;2023-04-01T02:52:35;9.40;99.90
12568;DHT22;6349;50.904;6.136;2023-04-01T02:54:38;9.50;99.90
12568;DHT22;6349;50.904;6.136;2023-04-01T02:56:40;9.40;99.90
12568;DHT22;6349;50.904;6.136;2023-04-01T02:58:42;9.50;99.90
12568;DHT22;6349;50.904;6.136;2023-04-01T03:00:44;9.50;99.90
12568;DHT22;6349;50.904;6.136;2023-04-01T03:02:46;9.50;99.90
12568;DHT22;6349;50.904;6.136;2023-04-01T03:04:48;9.50;99.90
12568;DHT22;6349;50.904;6.136;2023-04-01T03:06:50;9.40;99.90
12568;DHT22;6349;50.904;6.136;2023-04-01T03:08:52;9.40;99.90
12568;DHT22;6349;50.904;6.136;2023-04-01T03:10:54;9.50;99.90
12568;DHT22;6349;50.904;6.136;2023-04-01T03:12:55;9.50;99.90
12568;DHT22;6349;50.904;6.136;2023-04-01T03:14:57;9.40;99.90
12568;DHT22;6349;50.904;6.136;2023-04-01T03:16:59;9.40;99.90
12568;DHT22;6349;50.904;6.136;2023-04-01T03:19:01;9.40;99.90
12568;DHT22;6349;50.904;6.136;2023-04-01T03:21:16;9.40;99.90
12568;DHT22;6349;50.904;6.136;2023-04-01T03:23:19;9.40;99.90
12568;DHT22;6349;50.904;6.136;2023-04-01T03:25:22;9.50;99.90
12568;DHT22;6349;50.904;6.136;2023-04-01T03:27:23;9.50;99.90
12568;DHT22;6349;50.904;6.136;2023-04-01T03:29:25;9.40;99.90
12568;DHT22;6349;50.904;6.136;2023-04-01T03:31:27;9.50;99.90
12568;DHT22;6349;50.904;6.136;2023-04-01T03:33:27;9.40;99.90
12568;DHT22;6349;50.904;6.136;2023-04-01T03:35:29;9.50;99.90
12568;DHT22;6349;50.904;6.136;2023-04-01T03:37:30;9.60;99.90
12568;DHT22;6349;50.904;6.136;2023-04-01T03:39:32;9.50;99.90
12568;DHT22;6349;50.904;6.136;2023-04-01T03:41:34;9.50;99.90
12568;DHT22;6349;50.904;6.136;2023-04-01T03:43:35;9.50;99.90
12568;DHT22;6349;50.904;6.136;2023-04-01T03:45:48;9.50;99.90
12568;DHT22;6349;50.904;6.136;2023-04-01T03:47:50;9.50;99.90
12568;DHT22;6349;50.904;6.136;2023-04-01T03:49:51;9.50;99.90
12568;DHT22;6349;50.904;6.136;2023-04-01T03:51:53;9.50;99.90
12568;DHT22;6349;50.904;6.136;2023-04-01T03:53:55;9.40;99.90
12568;DHT22;6349;50.904;6.136;2023-04-01T03:55:55;9.40;99.90
12568;DHT22;6349;50.904;6.136;2023-04-01T03:57:57;9.50;99.90
12568;DHT22;6349;50.904;6.136;2023-04-01T03:59:59;9.50;99.90
12568;DHT22;6349;50.904;6.136;2023-04-01T04:02:01;9.50;99.90
12568;DHT22;6349;50.904;6.136;2023-04-01T04:04:03;9.40;99.90
12568;DHT22;6349;50.904;6.136;2023-04-01T04:06:04;9.50;99.90
12568;DHT22;6349;50.904;6.136;2023-04-01T04:08:06;9.40;99.90
12568;DHT22;6349;50.904;6.136;2023-04-01T04:10:07;9.40;99.90
12568;DHT22;6349;50.904;6.136;2023-04-01T04:12:08;9.40;99.90
12568;DHT22;6349;50.904;6.136;2023-04-01T04:14:10;9.50;99.90
12568;DHT22;6349;50.904;6.136;2023-04-01T04:16:12;9.50;99.90
12568;DHT22;6349;50.904;6.136;2023-04-01T04:18:13;9.40;99.90
12568;DHT22;6349;50.904;6.136;2023-04-01T04:20:14;9.50;99.90
12568;DHT22;6349;50.904;6.136;2023-04-01T04:22:16;9.50;99.90
12568;DHT22;6349;50.904;6.136;2023-04-01T04:24:18;9.40;99.90
12568;DHT22;6349;50.904;6.136;2023-04-01T04:26:20;9.50;99.90
12568;DHT22;6349;50.904;6.136;2023-04-01T04:28:21;9.40;99.90
12568;DHT22;6349;50.904;6.136;2023-04-01T04:30:21;9.50;99.90
12568;DHT22;6349;50.904;6.136;2023-04-01T04:32:23;9.50;99.90
12568;DHT22;6349;50.904;6.136;2023-04-01T04:34:25;9.50;99.90
12568;DHT22;6349;50.904;6.136;2023-04-01T04:36:27;9.50;99.90
12568;DHT22;6349;50.904;6.136;2023-04-01T04:38:29;9.50;99.90
12568;DHT22;6349;50.904;6.136;2023-04-01T04:40:32;9.50;99.90
12568;DHT22;6349;50.904;6.136;2023-04-01T04:42:34;9.50;99.90
12568;DHT22;6349;50.904;6.136;2023-04-01T04:44:35;9.50;99.90
12568;DHT22;6349;50.904;6.136;2023-04-01T04:46:37;9.50;99.90
12568;DHT22;6349;50.904;6.136;2023-04-01T04:48:40;9.40;99.90
12568;DHT22;6349;50.904;6.136;2023-04-01T04:50:42;9.40;99.90
12568;DHT22;6349;50.904;6.136;2023-04-01T04:52:42;9.40;99.90
12568;DHT22;6349;50.904;6.136;2023-04-01T04:54:44;9.50;99.90
12568;DHT22;6349;50.904;6.136;2023-04-01T04:56:45;9.50;99.90
12568;DHT22;6349;50.904;6.136;2023-04-01T04:58:48;9.50;99.90
12568;DHT22;6349;50.904;6.136;2023-04-01T05:00:50;9.40;99.90
12568;DHT22;6349;50.904;6.136;2023-04-01T05:02:53;9.50;99.90
12568;DHT22;6349;50.904;6.136;2023-04-01T05:04:55;9.40;99.90
12568;DHT22;6349;50.904;6.136;2023-04-01T05:06:56;9.40;99.90
12568;DHT22;6349;50.904;6.136;2023-04-01T05:08:59;9.40;99.90
12568;DHT22;6349;50.904;6.136;2023-04-01T05:11:02;9.40;99.90
12568;DHT22;6349;50.904;6.136;2023-04-01T05:13:04;9.40;99.90
12568;DHT22;6349;50.904;6.136;2023-04-01T05:15:05;9.50;99.90
12568;DHT22;6349;50.904;6.136;2023-04-01T05:17:11;9.40;99.90
12568;DHT22;6349;50.904;6.136;2023-04-01T05:19:14;9.40;99.90
12568;DHT22;6349;50.904;6.136;2023-04-01T05:21:16;9.40;99.90
12568;DHT22;6349;50.904;6.136;2023-04-01T05:23:18;9.40;99.90
12568;DHT22;6349;50.904;6.136;2023-04-01T05:25:22;9.40;99.90
12568;DHT22;6349;50.904;6.136;2023-04-01T05:27:24;9.40;99.90
12568;DHT22;6349;50.904;6.136;2023-04-01T05:29:26;9.40;99.90
12568;DHT22;6349;50.904;6.136;2023-04-01T05:31:27;9.50;99.90
12568;DHT22;6349;50.904;6.136;2023-04-01T05:33:29;9.40;99.90
12568;DHT22;6349;50.904;6.136;2023-04-01T05:35:31;9.40;99.90
12568;DHT22;6349;50.904;6.136;2023-04-01T05:37:34;9.40;99.90
12568;DHT22;6349;50.904;6.136;2023-04-01T05:39:38;9.40;99.90
12568;DHT22;6349;50.904;6.136;2023-04-01T05:41:40;9.40;99.90
12568;DHT22;6349;50.904;6.136;2023-04-01T05:43:41;9.40;99.90
12568;DHT22;6349;50.904;6.136;2023-04-01T05:45:43;9.40;99.90
12568;DHT22;6349;50.904;6.136;2023-04-01T05:47:45;9.40;99.90
12568;DHT22;6349;50.904;6.136;2023-04-01T05:49:46;9.40;99.90
12568;DHT22;6349;50.904;6.136;2023-04-01T05:51:48;9.40;99.90
12568;DHT22;6349;50.904;6.136;2023-04-01T05:53:50;9.40;99.90
12568;DHT22;6349;50.904;6.136;2023-04-01T05:55:52;9.40;99.90
12568;DHT22;6349;50.904;6.136;2023-04-01T05:57:52;9.40;99.90
12568;DHT22;6349;50.904;6.136;2023-04-01T05:59:55;9.40;99.90
12568;DHT22;6349;50.904;6.136;2023-04-01T06:01:57;9.40;99.90
12568;DHT22;6349;50.904;6.136;2023-04-01T06:04:00;9.50;99.90
12568;DHT22;6349;50.904;6.136;2023-04-01T06:06:00;9.40;99.90
12568;DHT22;6349;50.904;6.136;2023-04-01T06:08:09;9.50;99.90
12568;DHT22;6349;50.904;6.136;2023-04-01T06:10:18;9.40;99.90
12568;DHT22;6349;50.904;6.136;2023-04-01T06:12:44;9.50;99.90
12568;DHT22;6349;50.904;6.136;2023-04-01T06:17:42;9.40;99.90
12568;DHT22;6349;50.904;6.136;2023-04-01T06:27:05;9.50;99.90
12568;DHT22;6349;50.904;6.136;2023-04-01T06:29:28;9.50;99.90
12568;DHT22;6349;50.904;6.136;2023-04-01T06:32:01;9.40;99.90
12568;DHT22;6349;50.904;6.136;2023-04-01T06:38:53;9.50;99.90
12568;DHT22;6349;50.904;6.136;2023-04-01T06:41:21;9.50;99.90
12568;DHT22;6349;50.904;6.136;2023-04-01T06:46:20;9.50;99.90
12568;DHT22;6349;50.904;6.136;2023-04-01T06:48:46;9.40;99.90
12568;DHT22;6349;50.904;6.136;2023-04-01T06:51:18;9.50;99.90
12568;DHT22;6349;50.904;6.136;2023-04-01T06:53:55;9.40;99.90
12568;DHT22;6349;50.904;6.136;2023-04-01T06:56:09;9.40;99.90
12568;DHT22;6349;50.904;6.136;2023-04-01T06:58:34;9.50;99.90
12568;DHT22;6349;50.904;6.136;2023-04-01T07:00:39;9.50;99.90
12568;DHT22;6349;50.904;6.136;2023-04-01T07:02:53;9.50;99.90
12568;DHT22;6349;50.904;6.136;2023-04-01T07:04:58;9.50;99.90
12568;DHT22;6349;50.904;6.136;2023-04-01T07:09:48;9.50;99.90
12568;DHT22;6349;50.904;6.136;2023-04-01T07:11:53;9.50;99.90
12568;DHT22;6349;50.904;6.136;2023-04-01T07:14:22;9.60;99.90
12568;DHT22;6349;50.904;6.136;2023-04-01T07:16:49;9.60;99.90
12568;DHT22;6349;50.904;6.136;2023-04-01T07:19:08;9.60;99.90
12568;DHT22;6349;50.904;6.136;2023-04-01T07:23:31;9.60;99.90
12568;DHT22;6349;50.904;6.136;2023-04-01T07:25:38;9.60;99.90
12568;DHT22;6349;50.904;6.136;2023-04-01T07:27:45;9.50;99.90
12568;DHT22;6349;50.904;6.136;2023-04-01T07:29:47;9.70;99.90
12568;DHT22;6349;50.904;6.136;2023-04-01T07:34:24;9.60;99.90
12568;DHT22;6349;50.904;6.136;2023-04-01T07:36:47;9.60;99.90
12568;DHT22;6349;50.904;6.136;2023-04-01T07:46:20;9.60;99.90
12568;DHT22;6349;50.904;6.136;2023-04-01T07:48:55;9.60;99.90
12568;DHT22;6349;50.904;6.136;2023-04-01T07:51:27;9.60;99.90
12568;DHT22;6349;50.904;6.136;2023-04-01T08:00:37;9.60;99.90
12568;DHT22;6349;50.904;6.136;2023-04-01T08:07:45;9.50;99.90
12568;DHT22;6349;50.904;6.136;2023-04-01T08:10:06;9.60;99.90
12568;DHT22;6349;50.904;6.136;2023-04-01T08:17:06;9.60;99.90
12568;DHT22;6349;50.904;6.136;2023-04-01T08:21:38;9.60;99.90
12568;DHT22;6349;50.904;6.136;2023-04-01T08:23:44;9.70;99.90
12568;DHT22;6349;50.904;6.136;2023-04-01T08:26:00;9.70;99.90
12568;DHT22;6349;50.904;6.136;2023-04-01T08:30:24;9.70;99.90
12568;DHT22;6349;50.904;6.136;2023-04-01T08:32:35;9.70;99.90
12568;DHT22;6349;50.904;6.136;2023-04-01T08:34:45;9.70;99.90
12568;DHT22;6349;50.904;6.136;2023-04-01T08:36:53;9.70;99.90
12568;DHT22;6349;50.904;6.136;2023-04-01T08:39:15;9.80;99.90
12568;DHT22;6349;50.904;6.136;2023-04-01T08:58:39;9.70;99.90
12568;DHT22;6349;50.904;6.136;2023-04-01T09:01:04;9.70;99.90
12568;DHT22;6349;50.904;6.136;2023-04-01T09:03:34;9.70;99.90
12568;DHT22;6349;50.904;6.136;2023-04-01T09:06:03;9.70;99.90
12568;DHT22;6349;50.904;6.136;2023-04-01T09:08:31;9.70;99.90
12568;DHT22;6349;50.904;6.136;2023-04-01T09:11:12;9.80;99.90
12568;DHT22;6349;50.904;6.136;2023-04-01T09:16:12;9.80;99.90
12568;DHT22;6349;50.904;6.136;2023-04-01T09:28:02;9.90;99.90
12568;DHT22;6349;50.904;6.136;2023-04-01T09:30:33;9.90;99.90
12568;DHT22;6349;50.904;6.136;2023-04-01T09:38:21;10.00;99.90
12568;DHT22;6349;50.904;6.136;2023-04-01T09:53:14;10.10;99.90
12568;DHT22;6349;50.904;6.136;2023-04-01T09:55:45;10.10;99.90
12568;DHT22;6349;50.904;6.136;2023-04-01T10:07:47;10.20;99.90
12568;DHT22;6349;50.904;6.136;2023-04-01T10:24:32;10.20;99.90
12568;DHT22;6349;50.904;6.136;2023-04-01T10:29:26;10.30;99.90
12568;DHT22;6349;50.904;6.136;2023-04-01T10:32:01;10.30;99.90
12568;DHT22;6349;50.904;6.136;2023-04-01T10:36:57;10.40;99.90
12568;DHT22;6349;50.904;6.136;2023-04-01T10:46:42;10.40;99.90
12568;DHT22;6349;50.904;6.136;2023-04-01T10:54:36;10.50;99.90
12568;DHT22;6349;50.904;6.136;2023-04-01T11:01:30;10.40;99.90
12568;DHT22;6349;50.904;6.136;2023-04-01T11:21:15;10.60;99.90
12568;DHT22;6349;50.904;6.136;2023-04-01T11:26:33;10.60;99.90
12568;DHT22;6349;50.904;6.136;2023-04-01T11:28:55;10.60;99.90
12568;DHT22;6349;50.904;6.136;2023-04-01T11:33:44;10.50;99.90
12568;DHT22;6349;50.904;6.136;2023-04-01T11:38:24;10.40;99.90
12568;DHT22;6349;50.904;6.136;2023-04-01T11:43:08;10.40;99.90
12568;DHT22;6349;50.904;6.136;2023-04-01T11:45:38;10.40;99.90
12568;DHT22;6349;50.904;6.136;2023-04-01T11:48:19;10.50;99.90
12568;DHT22;6349;50.904;6.136;2023-04-01T11:55:51;10.60;99.90
12568;DHT22;6349;50.904;6.136;2023-04-01T12:05:47;10.70;99.90
12568;DHT22;6349;50.904;6.136;2023-04-01T12:07:59;10.70;99.90
12568;DHT22;6349;50.904;6.136;2023-04-01T12:10:19;10.80;99.90
12568;DHT22;6349;50.904;6.136;2023-04-01T12:15:44;10.90;99.90
12568;DHT22;6349;50.904;6.136;2023-04-01T12:20:48;11.00;99.90
12568;DHT22;6349;50.904;6.136;2023-04-01T12:27:48;10.90;99.90
12568;DHT22;6349;50.904;6.136;2023-04-01T12:30:26;10.90;99.90
12568;DHT22;6349;50.904;6.136;2023-04-01T12:38:36;10.90;99.90
12568;DHT22;6349;50.904;6.136;2023-04-01T12:41:14;10.90;99.90
12568;DHT22;6349;50.904;6.136;2023-04-01T12:48:41;10.90;99.90
12568;DHT22;6349;50.904;6.136;2023-04-01T12:55:43;10.90;99.90
12568;DHT22;6349;50.904;6.136;2023-04-01T12:58:06;10.90;99.90
12568;DHT22;6349;50.904;6.136;2023-04-01T13:00:23;10.90;99.90
12568;DHT22;6349;50.904;6.136;2023-04-01T13:02:32;10.90;99.90
12568;DHT22;6349;50.904;6.136;2023-04-01T13:07:37;10.90;99.90
12568;DHT22;6349;50.904;6.136;2023-04-01T13:12:47;10.90;99.90
12568;DHT22;6349;50.904;6.136;2023-04-01T13:17:43;10.90;99.90
12568;DHT22;6349;50.904;6.136;2023-04-01T13:22:14;10.90;99.90
12568;DHT22;6349;50.904;6.136;2023-04-01T13:24:46;10.80;99.90
12568;DHT22;6349;50.904;6.136;2023-04-01T13:27:22;10.80;99.90
12568;DHT22;6349;50.904;6.136;2023-04-01T13:36:06;10.80;99.90
12568;DHT22;6349;50.904;6.136;2023-04-01T13:41:14;10.80;99.90
12568;DHT22;6349;50.904;6.136;2023-04-01T13:43:31;10.80;99.90
12568;DHT22;6349;50.904;6.136;2023-04-01T13:48:34;10.80;99.90
12568;DHT22;6349;50.904;6.136;2023-04-01T13:50:51;10.80;99.90
12568;DHT22;6349;50.904;6.136;2023-04-01T13:53:32;10.80;99.90
12568;DHT22;6349;50.904;6.136;2023-04-01T14:06:02;11.00;99.90
12568;DHT22;6349;50.904;6.136;2023-04-01T14:10:46;11.00;99.90
12568;DHT22;6349;50.904;6.136;2023-04-01T14:12:58;11.00;99.90
12568;DHT22;6349;50.904;6.136;2023-04-01T14:27:21;11.00;99.90
12568;DHT22;6349;50.904;6.136;2023-04-01T14:32:06;11.00;99.90
12568;DHT22;6349;50.904;6.136;2023-04-01T14:36:27;11.00;99.90
12568;DHT22;6349;50.904;6.136;2023-04-01T14:48:39;10.80;99.90
12568;DHT22;6349;50.904;6.136;2023-04-01T14:50:54;10.80;99.90
12568;DHT22;6349;50.904;6.136;2023-04-01T14:55:34;10.80;99.90
12568;DHT22;6349;50.904;6.136;2023-04-01T14:57:35;10.90;99.90
12568;DHT22;6349;50.904;6.136;2023-04-01T14:59:41;11.00;99.90
12568;DHT22;6349;50.904;6.136;2023-04-01T15:07:35;11.00;99.90
12568;DHT22;6349;50.904;6.136;2023-04-01T15:09:48;11.10;99.90
12568;DHT22;6349;50.904;6.136;2023-04-01T15:24:21;10.90;99.90
12568;DHT22;6349;50.904;6.136;2023-04-01T15:29:26;10.80;99.90
12568;DHT22;6349;50.904;6.136;2023-04-01T15:36:51;10.70;99.90
12568;DHT22;6349;50.904;6.136;2023-04-01T15:39:00;10.70;99.90
12568;DHT22;6349;50.904;6.136;2023-04-01T15:43:51;10.70;99.90
12568;DHT22;6349;50.904;6.136;2023-04-01T15:46:26;10.60;99.90
12568;DHT22;6349;50.904;6.136;2023-04-01T15:49:04;10.70;99.90
12568;DHT22;6349;50.904;6.136;2023-04-01T15:59:46;10.70;99.90
12568;DHT22;6349;50.904;6.136;2023-04-01T16:02:07;10.70;99.90
12568;DHT22;6349;50.904;6.136;2023-04-01T16:04:28;10.70;99.90
12568;DHT22;6349;50.904;6.136;2023-04-01T16:14:43;10.50;99.90
12568;DHT22;6349;50.904;6.136;2023-04-01T16:22:08;10.50;99.90
12568;DHT22;6349;50.904;6.136;2023-04-01T16:24:35;10.50;99.90
12568;DHT22;6349;50.904;6.136;2023-04-01T16:30:48;10.50;99.90
12568;DHT22;6349;50.904;6.136;2023-04-01T16:32:50;10.40;99.90
12568;DHT22;6349;50.904;6.136;2023-04-01T16:42:43;10.40;99.90
12568;DHT22;6349;50.904;6.136;2023-04-01T16:45:25;10.30;99.90
12568;DHT22;6349;50.904;6.136;2023-04-01T16:47:36;10.30;99.90
12568;DHT22;6349;50.904;6.136;2023-04-01T16:49:48;10.30;99.90
12568;DHT22;6349;50.904;6.136;2023-04-01T16:55:01;10.20;99.90
12568;DHT22;6349;50.904;6.136;2023-04-01T17:06:49;10.20;99.90
12568;DHT22;6349;50.904;6.136;2023-04-01T17:11:24;10.20;99.90
12568;DHT22;6349;50.904;6.136;2023-04-01T17:20:42;10.10;99.90
12568;DHT22;6349;50.904;6.136;2023-04-01T17:23:01;10.10;99.90
12568;DHT22;6349;50.904;6.136;2023-04-01T17:25:25;10.10;99.90
12568;DHT22;6349;50.904;6.136;2023-04-01T17:30:53;10.00;99.90
12568;DHT22;6349;50.904;6.136;2023-04-01T17:33:30;10.00;99.90
12568;DHT22;6349;50.904;6.136;2023-04-01T17:35:40;10.00;99.90
12568;DHT22;6349;50.904;6.136;2023-04-01T17:37:57;10.00;99.90
12568;DHT22;6349;50.904;6.136;2023-04-01T17:45:11;10.00;99.90
12568;DHT22;6349;50.904;6.136;2023-04-01T17:53:35;9.90;99.90
12568;DHT22;6349;50.904;6.136;2023-04-01T18:05:03;9.90;99.90
12568;DHT22;6349;50.904;6.136;2023-04-01T18:09:55;9.80;99.90
12568;DHT22;6349;50.904;6.136;2023-04-01T18:20:32;9.60;99.90
12568;DHT22;6349;50.904;6.136;2023-04-01T18:22:47;9.60;99.90
12568;DHT22;6349;50.904;6.136;2023-04-01T18:24:59;9.60;99.90
12568;DHT22;6349;50.904;6.136;2023-04-01T18:27:31;9.60;99.90
12568;DHT22;6349;50.904;6.136;2023-04-01T18:34:37;9.50;99.90
12568;DHT22;6349;50.904;6.136;2023-04-01T18:36:56;9.50;99.90
12568;DHT22;6349;50.904;6.136;2023-04-01T18:41:56;9.50;99.90
12568;DHT22;6349;50.904;6.136;2023-04-01T18:52:08;9.50;99.90
12568;DHT22;6349;50.904;6.136;2023-04-01T18:55:16;9.50;99.90
12568;DHT22;6349;50.904;6.136;2023-04-01T18:57:19;9.50;99.90
12568;DHT22;6349;50.904;6.136;2023-04-01T18:59:45;9.50;99.90
12568;DHT22;6349;50.904;6.136;2023-04-01T19:04:43;9.50;99.90
12568;DHT22;6349;50.904;6.136;2023-04-01T19:06:57;9.50;99.90
12568;DHT22;6349;50.904;6.136;2023-04-01T19:11:48;9.50;99.90
12568;DHT22;6349;50.904;6.136;2023-04-01T19:19:38;9.50;99.90
12568;DHT22;6349;50.904;6.136;2023-04-01T19:21:52;9.50;99.90
12568;DHT22;6349;50.904;6.136;2023-04-01T19:26:42;9.50;99.90
12568;DHT22;6349;50.904;6.136;2023-04-01T19:34:25;9.50;99.90
12568;DHT22;6349;50.904;6.136;2023-04-01T19:36:48;9.50;99.90
12568;DHT22;6349;50.904;6.136;2023-04-01T19:39:11;9.50;99.90
12568;DHT22;6349;50.904;6.136;2023-04-01T19:43:44;9.50;99.90
12568;DHT22;6349;50.904;6.136;2023-04-01T19:46:12;9.50;99.90
12568;DHT22;6349;50.904;6.136;2023-04-01T19:56:19;9.40;99.90
12568;DHT22;6349;50.904;6.136;2023-04-01T19:58:36;9.40;99.90
12568;DHT22;6349;50.904;6.136;2023-04-01T20:00:52;9.40;99.90
12568;DHT22;6349;50.904;6.136;2023-04-01T20:05:45;9.40;99.90
12568;DHT22;6349;50.904;6.136;2023-04-01T20:13:28;9.40;99.90
12568;DHT22;6349;50.904;6.136;2023-04-01T20:15:41;9.40;99.90
12568;DHT22;6349;50.904;6.136;2023-04-01T20:17:46;9.40;99.90
12568;DHT22;6349;50.904;6.136;2023-04-01T20:20:18;9.40;99.90
12568;DHT22;6349;50.904;6.136;2023-04-01T20:24:46;9.40;99.90
12568;DHT22;6349;50.904;6.136;2023-04-01T20:29:41;9.40;99.90
12568;DHT22;6349;50.904;6.136;2023-04-01T20:34:41;9.40;99.90
12568;DHT22;6349;50.904;6.136;2023-04-01T20:42:07;9.40;99.90
12568;DHT22;6349;50.904;6.136;2023-04-01T20:49:48;9.40;99.90
12568;DHT22;6349;50.904;6.136;2023-04-01T20:55:18;9.40;99.90
12568;DHT22;6349;50.904;6.136;2023-04-01T21:10:11;9.50;99.90
12568;DHT22;6349;50.904;6.136;2023-04-01T21:12:19;9.50;99.90
12568;DHT22;6349;50.904;6.136;2023-04-01T21:14:39;9.50;99.90
12568;DHT22;6349;50.904;6.136;2023-04-01T21:19:53;9.40;99.90
12568;DHT22;6349;50.904;6.136;2023-04-01T21:33:07;9.50;99.90
12568;DHT22;6349;50.904;6.136;2023-04-01T21:39:27;9.50;99.90
12568;DHT22;6349;50.904;6.136;2023-04-01T21:52:04;9.40;99.90
12568;DHT22;6349;50.904;6.136;2023-04-01T21:56:49;9.30;99.90
12568;DHT22;6349;50.904;6.136;2023-04-01T22:04:31;9.40;99.90
12568;DHT22;6349;50.904;6.136;2023-04-01T22:09:18;9.40;99.90
12568;DHT22;6349;50.904;6.136;2023-04-01T22:13:56;9.30;99.90
12568;DHT22;6349;50.904;6.136;2023-04-01T22:16:39;9.40;99.90
12568;DHT22;6349;50.904;6.136;2023-04-01T22:19:05;9.40;99.90
12568;DHT22;6349;50.904;6.136;2023-04-01T22:21:13;9.40;99.90
12568;DHT22;6349;50.904;6.136;2023-04-01T22:23:31;9.40;99.90
12568;DHT22;6349;50.904;6.136;2023-04-01T22:25:42;9.40;99.90
12568;DHT22;6349;50.904;6.136;2023-04-01T22:28:12;9.30;99.90
12568;DHT22;6349;50.904;6.136;2023-04-01T22:30:23;9.30;99.90
12568;DHT22;6349;50.904;6.136;2023-04-01T22:34:49;9.30;99.90
12568;DHT22;6349;50.904;6.136;2023-04-01T22:37:14;9.30;99.90
12568;DHT22;6349;50.904;6.136;2023-04-01T22:39:38;9.30;99.90
12568;DHT22;6349;50.904;6.136;2023-04-01T22:42:06;9.20;99.90
12568;DHT22;6349;50.904;6.136;2023-04-01T22:44:25;9.20;99.90
12568;DHT22;6349;50.904;6.136;2023-04-01T22:46:52;9.20;99.90
12568;DHT22;6349;50.904;6.136;2023-04-01T22:49:08;9.20;99.90
12568;DHT22;6349;50.904;6.136;2023-04-01T22:55:32;9.10;99.90
12568;DHT22;6349;50.904;6.136;2023-04-01T22:57:42;9.00;99.90
12568;DHT22;6349;50.904;6.136;2023-04-01T22:59:54;9.00;99.90
12568;DHT22;6349;50.904;6.136;2023-04-01T23:02:27;9.00;99.90
12568;DHT22;6349;50.904;6.136;2023-04-01T23:04:32;9.00;99.90
12568;DHT22;6349;50.904;6.136;2023-04-01T23:06:39;9.00;99.90
12568;DHT22;6349;50.904;6.136;2023-04-01T23:11:13;9.00;99.90
12568;DHT22;6349;50.904;6.136;2023-04-01T23:13:24;9.00;99.90
12568;DHT22;6349;50.904;6.136;2023-04-01T23:15:28;9.00;99.90
12568;DHT22;6349;50.904;6.136;2023-04-01T23:17:52;9.00;99.90
12568;DHT22;6349;50.904;6.136;2023-04-01T23:22:28;9.00;99.90
12568;DHT22;6349;50.904;6.136;2023-04-01T23:24:53;9.00;99.90
12568;DHT22;6349;50.904;6.136;2023-04-01T23:29:04;8.90;99.90